Terminal Aerodrome Forecast
Issued by NWS Shreveport, LA

Home | Current Version | Previous Version | Text Only | Print | Product List | Glossary On
Versions: 1 2 3 4 5 6 7 8 9 10 11 12 13 14 15 16 17 18 19 20
000
FTUS44 KSHV 240320 AAF
TAFGGG
TAF AMD
KGGG 240320Z 2403/2424 16012KT P6SM -RA SCT060 BKN150
      TEMPO 2403/2404 -RA FEW060 FEW120
     FM240400 16005KT P6SM SCT250
     FM241900 17004KT P6SM VCSH SCT060 BKN090
      TEMPO 2422/2424 -TSRA BKN060CB=

USA.gov is the U.S. government's official web portal to all federal, state and local government web resources and services.